sensor_id;sensor_type;location;lat;lon;timestamp;temperature;humidity
67557;DHT22;54387;53.526;49.300;2022-09-29T00:02:02;13.50;64.10
67557;DHT22;54387;53.526;49.300;2022-09-29T00:04:28;13.50;64.20
67557;DHT22;54387;53.526;49.300;2022-09-29T00:06:55;13.50;64.20
67557;DHT22;54387;53.526;49.300;2022-09-29T00:09:22;13.40;64.20
67557;DHT22;54387;53.526;49.300;2022-09-29T00:11:48;13.40;64.90
67557;DHT22;54387;53.526;49.300;2022-09-29T00:14:14;13.30;64.40
67557;DHT22;54387;53.526;49.300;2022-09-29T00:16:41;13.30;64.60
67557;DHT22;54387;53.526;49.300;2022-09-29T00:19:07;13.20;64.60
67557;DHT22;54387;53.526;49.300;2022-09-29T00:21:34;13.20;64.70
67557;DHT22;54387;53.526;49.300;2022-09-29T00:24:00;13.20;64.70
67557;DHT22;54387;53.526;49.300;2022-09-29T00:26:27;13.20;64.60
67557;DHT22;54387;53.526;49.300;2022-09-29T00:28:55;13.30;65.20
67557;DHT22;54387;53.526;49.300;2022-09-29T00:31:27;13.30;64.70
67557;DHT22;54387;53.526;49.300;2022-09-29T00:33:54;13.30;64.60
67557;DHT22;54387;53.526;49.300;2022-09-29T00:36:21;13.30;64.60
67557;DHT22;54387;53.526;49.300;2022-09-29T00:38:49;13.30;64.60
67557;DHT22;54387;53.526;49.300;2022-09-29T00:41:20;13.30;64.60
67557;DHT22;54387;53.526;49.300;2022-09-29T00:47:00;13.30;64.40
67557;DHT22;54387;53.526;49.300;2022-09-29T00:49:52;13.30;64.40
67557;DHT22;54387;53.526;49.300;2022-09-29T00:52:24;13.30;64.40
67557;DHT22;54387;53.526;49.300;2022-09-29T00:57:22;13.30;64.40
67557;DHT22;54387;53.526;49.300;2022-09-29T00:59:58;13.30;64.40
67557;DHT22;54387;53.526;49.300;2022-09-29T01:02:27;13.30;64.40
67557;DHT22;54387;53.526;49.300;2022-09-29T01:04:56;13.30;64.40
67557;DHT22;54387;53.526;49.300;2022-09-29T01:07:24;13.30;64.50
67557;DHT22;54387;53.526;49.300;2022-09-29T01:09:55;13.30;64.50
67557;DHT22;54387;53.526;49.300;2022-09-29T01:12:22;13.20;64.40
67557;DHT22;54387;53.526;49.300;2022-09-29T01:14:51;13.20;64.50
67557;DHT22;54387;53.526;49.300;2022-09-29T01:17:19;13.20;64.40
67557;DHT22;54387;53.526;49.300;2022-09-29T01:31:20;13.30;64.30
67557;DHT22;54387;53.526;49.300;2022-09-29T01:37:06;13.30;64.30
67557;DHT22;54387;53.526;49.300;2022-09-29T01:39:49;13.20;64.30
67557;DHT22;54387;53.526;49.300;2022-09-29T01:42:22;13.20;64.30
67557;DHT22;54387;53.526;49.300;2022-09-29T01:45:17;13.20;64.30
67557;DHT22;54387;53.526;49.300;2022-09-29T01:47:53;13.20;64.30
67557;DHT22;54387;53.526;49.300;2022-09-29T01:50:28;13.20;64.30
67557;DHT22;54387;53.526;49.300;2022-09-29T01:53:00;13.20;64.30
67557;DHT22;54387;53.526;49.300;2022-09-29T01:55:31;13.20;64.80
67557;DHT22;54387;53.526;49.300;2022-09-29T01:58:04;13.20;64.30
67557;DHT22;54387;53.526;49.300;2022-09-29T02:00:40;13.20;64.30
67557;DHT22;54387;53.526;49.300;2022-09-29T02:05:59;13.20;64.30
67557;DHT22;54387;53.526;49.300;2022-09-29T02:08:53;13.20;64.30
67557;DHT22;54387;53.526;49.300;2022-09-29T02:11:20;13.20;64.30
67557;DHT22;54387;53.526;49.300;2022-09-29T02:14:00;13.20;64.30
67557;DHT22;54387;53.526;49.300;2022-09-29T02:16:31;13.20;64.30
67557;DHT22;54387;53.526;49.300;2022-09-29T02:19:21;13.20;64.40
67557;DHT22;54387;53.526;49.300;2022-09-29T02:21:50;13.20;64.40
67557;DHT22;54387;53.526;49.300;2022-09-29T02:24:20;13.20;64.40
67557;DHT22;54387;53.526;49.300;2022-09-29T02:26:47;13.20;64.40
67557;DHT22;54387;53.526;49.300;2022-09-29T02:29:15;13.30;64.40
67557;DHT22;54387;53.526;49.300;2022-09-29T02:31:42;13.30;64.40
67557;DHT22;54387;53.526;49.300;2022-09-29T02:34:12;13.30;64.40
67557;DHT22;54387;53.526;49.300;2022-09-29T02:42:24;13.30;64.60
67557;DHT22;54387;53.526;49.300;2022-09-29T02:44:55;13.30;64.60
67557;DHT22;54387;53.526;49.300;2022-09-29T02:47:48;13.30;64.50
67557;DHT22;54387;53.526;49.300;2022-09-29T02:53:17;13.40;64.50
67557;DHT22;54387;53.526;49.300;2022-09-29T02:55:58;13.40;64.50
67557;DHT22;54387;53.526;49.300;2022-09-29T03:01:05;13.40;64.60
67557;DHT22;54387;53.526;49.300;2022-09-29T03:03:32;13.40;64.60
67557;DHT22;54387;53.526;49.300;2022-09-29T03:05:59;13.50;64.70
67557;DHT22;54387;53.526;49.300;2022-09-29T03:08:25;13.50;64.60
67557;DHT22;54387;53.526;49.300;2022-09-29T03:10:52;13.50;64.60
67557;DHT22;54387;53.526;49.300;2022-09-29T03:13:19;13.50;64.60
67557;DHT22;54387;53.526;49.300;2022-09-29T03:15:46;13.60;64.70
67557;DHT22;54387;53.526;49.300;2022-09-29T03:18:12;13.60;64.70
67557;DHT22;54387;53.526;49.300;2022-09-29T03:20:39;13.60;64.80
67557;DHT22;54387;53.526;49.300;2022-09-29T03:23:06;13.70;64.90
67557;DHT22;54387;53.526;49.300;2022-09-29T03:25:32;13.70;65.00
67557;DHT22;54387;53.526;49.300;2022-09-29T03:27:59;13.70;65.00
67557;DHT22;54387;53.526;49.300;2022-09-29T03:30:25;13.80;65.20
67557;DHT22;54387;53.526;49.300;2022-09-29T03:32:52;13.80;65.20
67557;DHT22;54387;53.526;49.300;2022-09-29T03:35:18;13.80;65.10
67557;DHT22;54387;53.526;49.300;2022-09-29T03:37:45;13.80;65.10
67557;DHT22;54387;53.526;49.300;2022-09-29T03:40:11;13.80;65.20
67557;DHT22;54387;53.526;49.300;2022-09-29T03:42:38;13.90;65.30
67557;DHT22;54387;53.526;49.300;2022-09-29T03:45:05;13.90;65.30
67557;DHT22;54387;53.526;49.300;2022-09-29T03:47:31;13.90;65.40
67557;DHT22;54387;53.526;49.300;2022-09-29T03:49:58;14.00;65.50
67557;DHT22;54387;53.526;49.300;2022-09-29T03:52:24;14.00;65.50
67557;DHT22;54387;53.526;49.300;2022-09-29T03:54:50;14.10;65.60
67557;DHT22;54387;53.526;49.300;2022-09-29T03:57:17;14.10;65.70
67557;DHT22;54387;53.526;49.300;2022-09-29T03:59:43;14.10;65.80
67557;DHT22;54387;53.526;49.300;2022-09-29T04:02:10;14.10;65.80
67557;DHT22;54387;53.526;49.300;2022-09-29T04:04:36;14.10;66.00
67557;DHT22;54387;53.526;49.300;2022-09-29T04:07:03;14.20;66.00
67557;DHT22;54387;53.526;49.300;2022-09-29T04:09:29;14.30;66.00
67557;DHT22;54387;53.526;49.300;2022-09-29T04:11:56;14.30;66.00
67557;DHT22;54387;53.526;49.300;2022-09-29T04:14:23;14.40;65.90
67557;DHT22;54387;53.526;49.300;2022-09-29T04:16:49;14.50;65.90
67557;DHT22;54387;53.526;49.300;2022-09-29T04:19:16;14.50;65.70
67557;DHT22;54387;53.526;49.300;2022-09-29T04:21:42;14.60;65.70
67557;DHT22;54387;53.526;49.300;2022-09-29T04:24:08;14.70;65.70
67557;DHT22;54387;53.526;49.300;2022-09-29T04:26:35;14.70;65.60
67557;DHT22;54387;53.526;49.300;2022-09-29T04:29:01;14.70;65.60
67557;DHT22;54387;53.526;49.300;2022-09-29T04:31:28;14.80;65.70
67557;DHT22;54387;53.526;49.300;2022-09-29T04:33:54;14.80;65.70
67557;DHT22;54387;53.526;49.300;2022-09-29T04:36:21;14.80;65.60
67557;DHT22;54387;53.526;49.300;2022-09-29T04:38:47;14.80;65.70
67557;DHT22;54387;53.526;49.300;2022-09-29T04:41:15;14.80;65.60
67557;DHT22;54387;53.526;49.300;2022-09-29T04:43:42;14.80;65.60
67557;DHT22;54387;53.526;49.300;2022-09-29T04:46:09;14.80;65.70
67557;DHT22;54387;53.526;49.300;2022-09-29T04:48:36;14.80;65.70
67557;DHT22;54387;53.526;49.300;2022-09-29T04:51:03;14.70;65.60
67557;DHT22;54387;53.526;49.300;2022-09-29T04:53:30;14.70;65.60
67557;DHT22;54387;53.526;49.300;2022-09-29T04:55:57;14.70;65.70
67557;DHT22;54387;53.526;49.300;2022-09-29T04:58:23;14.60;65.70
67557;DHT22;54387;53.526;49.300;2022-09-29T05:00:50;14.60;65.90
67557;DHT22;54387;53.526;49.300;2022-09-29T05:03:16;14.50;66.00
67557;DHT22;54387;53.526;49.300;2022-09-29T05:05:43;14.50;66.10
67557;DHT22;54387;53.526;49.300;2022-09-29T05:08:09;14.50;66.30
67557;DHT22;54387;53.526;49.300;2022-09-29T05:10:36;14.40;66.50
67557;DHT22;54387;53.526;49.300;2022-09-29T05:13:02;14.30;66.60
67557;DHT22;54387;53.526;49.300;2022-09-29T05:15:29;14.30;66.80
67557;DHT22;54387;53.526;49.300;2022-09-29T05:17:55;14.20;66.90
67557;DHT22;54387;53.526;49.300;2022-09-29T05:20:22;14.20;67.20
67557;DHT22;54387;53.526;49.300;2022-09-29T05:22:48;14.20;67.30
67557;DHT22;54387;53.526;49.300;2022-09-29T05:25:15;14.30;67.40
67557;DHT22;54387;53.526;49.300;2022-09-29T05:27:41;14.30;67.50
67557;DHT22;54387;53.526;49.300;2022-09-29T05:30:08;14.30;67.50
67557;DHT22;54387;53.526;49.300;2022-09-29T05:32:34;14.30;67.70
67557;DHT22;54387;53.526;49.300;2022-09-29T05:35:01;14.20;67.80
67557;DHT22;54387;53.526;49.300;2022-09-29T05:37:28;14.20;67.90
67557;DHT22;54387;53.526;49.300;2022-09-29T05:39:55;14.20;68.00
67557;DHT22;54387;53.526;49.300;2022-09-29T05:42:21;14.20;68.10
67557;DHT22;54387;53.526;49.300;2022-09-29T05:44:50;14.10;68.20
67557;DHT22;54387;53.526;49.300;2022-09-29T05:47:17;14.10;68.40
67557;DHT22;54387;53.526;49.300;2022-09-29T05:49:44;14.00;68.60
67557;DHT22;54387;53.526;49.300;2022-09-29T05:52:10;14.00;68.70
67557;DHT22;54387;53.526;49.300;2022-09-29T05:54:37;14.10;68.80
67557;DHT22;54387;53.526;49.300;2022-09-29T05:57:03;14.10;68.90
67557;DHT22;54387;53.526;49.300;2022-09-29T05:59:29;14.00;68.90
67557;DHT22;54387;53.526;49.300;2022-09-29T06:01:56;14.10;69.10
67557;DHT22;54387;53.526;49.300;2022-09-29T06:04:23;14.10;69.30
67557;DHT22;54387;53.526;49.300;2022-09-29T06:06:49;14.10;69.30
67557;DHT22;54387;53.526;49.300;2022-09-29T06:09:15;14.10;69.40
67557;DHT22;54387;53.526;49.300;2022-09-29T06:11:42;14.20;70.00
67557;DHT22;54387;53.526;49.300;2022-09-29T06:14:09;14.20;69.50
67557;DHT22;54387;53.526;49.300;2022-09-29T06:16:35;14.20;69.50
67557;DHT22;54387;53.526;49.300;2022-09-29T06:19:03;14.20;69.50
67557;DHT22;54387;53.526;49.300;2022-09-29T06:21:30;14.30;69.60
67557;DHT22;54387;53.526;49.300;2022-09-29T06:23:57;14.30;69.60
67557;DHT22;54387;53.526;49.300;2022-09-29T06:26:24;14.40;69.60
67557;DHT22;54387;53.526;49.300;2022-09-29T06:28:52;14.40;69.70
67557;DHT22;54387;53.526;49.300;2022-09-29T06:31:22;14.40;69.60
67557;DHT22;54387;53.526;49.300;2022-09-29T06:33:49;14.40;69.70
67557;DHT22;54387;53.526;49.300;2022-09-29T06:36:16;14.40;69.70
67557;DHT22;54387;53.526;49.300;2022-09-29T06:39:08;14.50;69.80
67557;DHT22;54387;53.526;49.300;2022-09-29T06:41:35;14.50;69.80
67557;DHT22;54387;53.526;49.300;2022-09-29T06:44:02;14.50;69.80
67557;DHT22;54387;53.526;49.300;2022-09-29T06:46:29;14.50;69.80
67557;DHT22;54387;53.526;49.300;2022-09-29T06:48:56;14.50;69.90
67557;DHT22;54387;53.526;49.300;2022-09-29T06:51:24;14.60;70.00
67557;DHT22;54387;53.526;49.300;2022-09-29T06:53:51;14.60;70.00
67557;DHT22;54387;53.526;49.300;2022-09-29T06:56:18;14.60;70.00
67557;DHT22;54387;53.526;49.300;2022-09-29T06:58:45;14.60;70.00
67557;DHT22;54387;53.526;49.300;2022-09-29T07:01:12;14.60;70.00
67557;DHT22;54387;53.526;49.300;2022-09-29T07:03:39;14.60;70.00
67557;DHT22;54387;53.526;49.300;2022-09-29T07:06:08;14.70;70.10
67557;DHT22;54387;53.526;49.300;2022-09-29T07:08:35;14.70;70.10
67557;DHT22;54387;53.526;49.300;2022-09-29T07:11:05;14.70;70.10
67557;DHT22;54387;53.526;49.300;2022-09-29T07:13:33;14.80;70.20
67557;DHT22;54387;53.526;49.300;2022-09-29T07:16:08;14.80;70.10
67557;DHT22;54387;53.526;49.300;2022-09-29T07:18:37;14.80;70.20
67557;DHT22;54387;53.526;49.300;2022-09-29T07:21:05;14.80;70.20
67557;DHT22;54387;53.526;49.300;2022-09-29T07:23:33;14.80;70.20
67557;DHT22;54387;53.526;49.300;2022-09-29T07:25:59;14.90;70.20
67557;DHT22;54387;53.526;49.300;2022-09-29T07:28:28;14.90;70.20
67557;DHT22;54387;53.526;49.300;2022-09-29T07:31:06;15.00;70.20
67557;DHT22;54387;53.526;49.300;2022-09-29T07:33:33;15.00;70.20
67557;DHT22;54387;53.526;49.300;2022-09-29T07:36:00;15.00;70.10
67557;DHT22;54387;53.526;49.300;2022-09-29T07:38:28;15.00;70.10
67557;DHT22;54387;53.526;49.300;2022-09-29T07:40:59;15.00;70.10
67557;DHT22;54387;53.526;49.300;2022-09-29T07:43:28;15.10;70.10
67557;DHT22;54387;53.526;49.300;2022-09-29T07:45:55;15.10;70.10
67557;DHT22;54387;53.526;49.300;2022-09-29T07:48:22;15.10;70.00
67557;DHT22;54387;53.526;49.300;2022-09-29T07:50:48;15.10;70.00
67557;DHT22;54387;53.526;49.300;2022-09-29T07:53:15;15.10;70.00
67557;DHT22;54387;53.526;49.300;2022-09-29T07:55:41;15.10;70.00
67557;DHT22;54387;53.526;49.300;2022-09-29T07:58:08;15.10;70.00
67557;DHT22;54387;53.526;49.300;2022-09-29T08:00:35;15.10;70.00
67557;DHT22;54387;53.526;49.300;2022-09-29T08:03:05;15.10;70.00
67557;DHT22;54387;53.526;49.300;2022-09-29T08:05:34;15.10;70.00
67557;DHT22;54387;53.526;49.300;2022-09-29T08:08:02;15.10;70.10
67557;DHT22;54387;53.526;49.300;2022-09-29T08:10:30;15.10;70.10
67557;DHT22;54387;53.526;49.300;2022-09-29T08:12:58;15.20;70.10
67557;DHT22;54387;53.526;49.300;2022-09-29T08:15:25;15.20;70.10
67557;DHT22;54387;53.526;49.300;2022-09-29T08:17:52;15.20;70.10
67557;DHT22;54387;53.526;49.300;2022-09-29T08:20:23;15.20;70.00
67557;DHT22;54387;53.526;49.300;2022-09-29T08:22:49;15.20;70.00
67557;DHT22;54387;53.526;49.300;2022-09-29T08:25:16;15.20;69.90
67557;DHT22;54387;53.526;49.300;2022-09-29T08:27:43;15.20;69.90
67557;DHT22;54387;53.526;49.300;2022-09-29T08:30:11;15.20;70.00
67557;DHT22;54387;53.526;49.300;2022-09-29T08:32:38;15.20;70.00
67557;DHT22;54387;53.526;49.300;2022-09-29T08:35:05;15.20;70.00
67557;DHT22;54387;53.526;49.300;2022-09-29T08:37:32;15.20;70.00
67557;DHT22;54387;53.526;49.300;2022-09-29T08:39:59;15.20;69.90
67557;DHT22;54387;53.526;49.300;2022-09-29T08:46:17;15.30;70.00
67557;DHT22;54387;53.526;49.300;2022-09-29T08:48:23;15.30;70.00
67557;DHT22;54387;53.526;49.300;2022-09-29T08:50:58;15.40;69.90
67557;DHT22;54387;53.526;49.300;2022-09-29T08:53:27;15.40;69.70
67557;DHT22;54387;53.526;49.300;2022-09-29T08:58:26;15.40;69.70
67557;DHT22;54387;53.526;49.300;2022-09-29T09:20:34;15.80;69.20
67557;DHT22;54387;53.526;49.300;2022-09-29T09:25:33;16.00;69.00
67557;DHT22;54387;53.526;49.300;2022-09-29T09:28:13;16.10;68.80
67557;DHT22;54387;53.526;49.300;2022-09-29T09:31:00;16.20;69.20
67557;DHT22;54387;53.526;49.300;2022-09-29T09:36:32;16.40;68.30
67557;DHT22;54387;53.526;49.300;2022-09-29T09:41:51;16.60;67.90
67557;DHT22;54387;53.526;49.300;2022-09-29T09:44:28;16.70;67.80
67557;DHT22;54387;53.526;49.300;2022-09-29T09:49:50;16.70;67.40
67557;DHT22;54387;53.526;49.300;2022-09-29T09:55:14;16.50;67.40
67557;DHT22;54387;53.526;49.300;2022-09-29T09:58:09;16.50;67.50
67557;DHT22;54387;53.526;49.300;2022-09-29T10:00:45;16.40;67.50
67557;DHT22;54387;53.526;49.300;2022-09-29T10:03:13;16.40;67.50
67557;DHT22;54387;53.526;49.300;2022-09-29T10:05:43;16.40;67.60
67557;DHT22;54387;53.526;49.300;2022-09-29T10:08:23;16.30;67.60
67557;DHT22;54387;53.526;49.300;2022-09-29T10:10:55;16.30;67.60
67557;DHT22;54387;53.526;49.300;2022-09-29T10:13:25;16.20;67.70
67557;DHT22;54387;53.526;49.300;2022-09-29T10:15:53;16.20;67.80
67557;DHT22;54387;53.526;49.300;2022-09-29T10:18:32;16.20;67.90
67557;DHT22;54387;53.526;49.300;2022-09-29T10:21:02;16.10;67.90
67557;DHT22;54387;53.526;49.300;2022-09-29T10:23:33;16.10;67.90
67557;DHT22;54387;53.526;49.300;2022-09-29T10:29:38;16.00;68.20
67557;DHT22;54387;53.526;49.300;2022-09-29T10:32:13;16.00;68.20
67557;DHT22;54387;53.526;49.300;2022-09-29T10:34:43;16.00;68.20
67557;DHT22;54387;53.526;49.300;2022-09-29T10:37:38;16.00;68.30
67557;DHT22;54387;53.526;49.300;2022-09-29T10:42:37;15.90;68.50
67557;DHT22;54387;53.526;49.300;2022-09-29T10:47:37;16.00;68.60
67557;DHT22;54387;53.526;49.300;2022-09-29T10:50:25;16.00;68.60
67557;DHT22;54387;53.526;49.300;2022-09-29T10:52:57;16.00;68.60
67557;DHT22;54387;53.526;49.300;2022-09-29T10:55:29;16.00;68.70
67557;DHT22;54387;53.526;49.300;2022-09-29T10:58:28;16.00;68.80
67557;DHT22;54387;53.526;49.300;2022-09-29T11:01:07;16.00;68.80
67557;DHT22;54387;53.526;49.300;2022-09-29T11:03:40;16.10;68.90
67557;DHT22;54387;53.526;49.300;2022-09-29T11:06:13;16.20;68.80
67557;DHT22;54387;53.526;49.300;2022-09-29T11:09:00;16.30;68.80
67557;DHT22;54387;53.526;49.300;2022-09-29T11:11:33;16.40;68.70
67557;DHT22;54387;53.526;49.300;2022-09-29T11:14:00;16.50;68.60
67557;DHT22;54387;53.526;49.300;2022-09-29T11:16:35;16.50;68.50
67557;DHT22;54387;53.526;49.300;2022-09-29T11:19:13;16.60;68.50
67557;DHT22;54387;53.526;49.300;2022-09-29T11:27:06;16.90;68.10
67557;DHT22;54387;53.526;49.300;2022-09-29T11:30:15;17.00;67.90
67557;DHT22;54387;53.526;49.300;2022-09-29T11:33:10;17.10;67.50
67557;DHT22;54387;53.526;49.300;2022-09-29T11:39:08;17.00;67.60
67557;DHT22;54387;53.526;49.300;2022-09-29T11:50:12;16.80;67.80
67557;DHT22;54387;53.526;49.300;2022-09-29T11:52:58;16.70;67.80
67557;DHT22;54387;53.526;49.300;2022-09-29T12:10:11;16.40;68.50
67557;DHT22;54387;53.526;49.300;2022-09-29T12:12:44;16.40;68.50
67557;DHT22;54387;53.526;49.300;2022-09-29T12:17:58;16.40;68.80
67557;DHT22;54387;53.526;49.300;2022-09-29T12:20:32;16.40;68.80
67557;DHT22;54387;53.526;49.300;2022-09-29T12:23:03;16.40;68.80
67557;DHT22;54387;53.526;49.300;2022-09-29T12:25:36;16.30;68.90
67557;DHT22;54387;53.526;49.300;2022-09-29T12:28:20;16.30;68.90
67557;DHT22;54387;53.526;49.300;2022-09-29T12:30:51;16.30;69.00
67557;DHT22;54387;53.526;49.300;2022-09-29T12:33:43;16.30;69.10
67557;DHT22;54387;53.526;49.300;2022-09-29T12:36:42;16.30;69.20
67557;DHT22;54387;53.526;49.300;2022-09-29T12:41:37;16.30;69.20
67557;DHT22;54387;53.526;49.300;2022-09-29T12:44:22;16.30;69.20
67557;DHT22;54387;53.526;49.300;2022-09-29T12:46:57;16.30;69.20
67557;DHT22;54387;53.526;49.300;2022-09-29T12:49:36;16.40;69.30
67557;DHT22;54387;53.526;49.300;2022-09-29T12:52:14;16.40;69.20
67557;DHT22;54387;53.526;49.300;2022-09-29T12:54:47;16.40;69.20
67557;DHT22;54387;53.526;49.300;2022-09-29T12:57:20;16.40;69.20
67557;DHT22;54387;53.526;49.300;2022-09-29T13:00:00;16.30;69.20
67557;DHT22;54387;53.526;49.300;2022-09-29T13:08:13;16.40;69.30
67557;DHT22;54387;53.526;49.300;2022-09-29T13:22:17;16.30;69.40
67557;DHT22;54387;53.526;49.300;2022-09-29T13:32:21;16.20;69.50
67557;DHT22;54387;53.526;49.300;2022-09-29T13:34:57;16.20;69.70
67557;DHT22;54387;53.526;49.300;2022-09-29T13:37:27;16.20;69.80
67557;DHT22;54387;53.526;49.300;2022-09-29T13:40:02;16.20;69.80
67557;DHT22;54387;53.526;49.300;2022-09-29T13:42:37;16.20;69.90
67557;DHT22;54387;53.526;49.300;2022-09-29T13:47:52;16.10;70.10
67557;DHT22;54387;53.526;49.300;2022-09-29T13:50:44;16.10;70.10
67557;DHT22;54387;53.526;49.300;2022-09-29T14:01:29;15.90;70.30
67557;DHT22;54387;53.526;49.300;2022-09-29T14:03:57;15.90;70.50
67557;DHT22;54387;53.526;49.300;2022-09-29T14:06:32;15.90;70.60
67557;DHT22;54387;53.526;49.300;2022-09-29T14:09:04;15.90;70.70
67557;DHT22;54387;53.526;49.300;2022-09-29T14:11:42;15.90;70.70
67557;DHT22;54387;53.526;49.300;2022-09-29T14:14:31;15.90;70.80
67557;DHT22;54387;53.526;49.300;2022-09-29T14:17:11;15.80;70.80
67557;DHT22;54387;53.526;49.300;2022-09-29T14:20:16;15.80;70.90
67557;DHT22;54387;53.526;49.300;2022-09-29T14:28:15;15.70;71.30
67557;DHT22;54387;53.526;49.300;2022-09-29T14:30:47;15.70;71.30
67557;DHT22;54387;53.526;49.300;2022-09-29T14:33:29;15.70;71.10
67557;DHT22;54387;53.526;49.300;2022-09-29T14:38:38;15.70;71.20
67557;DHT22;54387;53.526;49.300;2022-09-29T14:55:30;15.60;71.50
67557;DHT22;54387;53.526;49.300;2022-09-29T15:06:13;15.50;71.70
67557;DHT22;54387;53.526;49.300;2022-09-29T15:08:43;15.50;71.80
67557;DHT22;54387;53.526;49.300;2022-09-29T15:16:57;15.50;71.70
67557;DHT22;54387;53.526;49.300;2022-09-29T15:19:43;15.40;71.70
67557;DHT22;54387;53.526;49.300;2022-09-29T15:27:45;15.40;71.70
67557;DHT22;54387;53.526;49.300;2022-09-29T15:30:15;15.40;71.70
67557;DHT22;54387;53.526;49.300;2022-09-29T15:32:45;15.30;71.80
67557;DHT22;54387;53.526;49.300;2022-09-29T15:35:17;15.30;72.50
67557;DHT22;54387;53.526;49.300;2022-09-29T15:40:55;15.30;71.90
67557;DHT22;54387;53.526;49.300;2022-09-29T15:43:24;15.30;71.90
67557;DHT22;54387;53.526;49.300;2022-09-29T15:45:57;15.30;71.90
67557;DHT22;54387;53.526;49.300;2022-09-29T15:48:25;15.30;71.90
67557;DHT22;54387;53.526;49.300;2022-09-29T15:50:52;15.30;71.90
67557;DHT22;54387;53.526;49.300;2022-09-29T15:53:25;15.30;71.90
67557;DHT22;54387;53.526;49.300;2022-09-29T15:55:53;15.30;71.80
67557;DHT22;54387;53.526;49.300;2022-09-29T15:58:36;15.30;71.80
67557;DHT22;54387;53.526;49.300;2022-09-29T16:01:11;15.40;71.80
67557;DHT22;54387;53.526;49.300;2022-09-29T16:03:49;15.40;71.80
67557;DHT22;54387;53.526;49.300;2022-09-29T16:06:30;15.40;71.70
67557;DHT22;54387;53.526;49.300;2022-09-29T16:09:03;15.40;71.60
67557;DHT22;54387;53.526;49.300;2022-09-29T16:11:33;15.40;71.60
67557;DHT22;54387;53.526;49.300;2022-09-29T16:16:46;15.40;71.60
67557;DHT22;54387;53.526;49.300;2022-09-29T16:19:26;15.40;71.60
67557;DHT22;54387;53.526;49.300;2022-09-29T16:21:59;15.40;71.60
67557;DHT22;54387;53.526;49.300;2022-09-29T16:24:30;15.40;71.50
67557;DHT22;54387;53.526;49.300;2022-09-29T16:26:58;15.40;71.50
67557;DHT22;54387;53.526;49.300;2022-09-29T16:29:33;15.40;72.00
67557;DHT22;54387;53.526;49.300;2022-09-29T16:38:32;15.40;71.70
67557;DHT22;54387;53.526;49.300;2022-09-29T16:41:20;15.30;71.70
67557;DHT22;54387;53.526;49.300;2022-09-29T16:46:51;15.20;71.70
67557;DHT22;54387;53.526;49.300;2022-09-29T16:55:05;15.20;71.90
67557;DHT22;54387;53.526;49.300;2022-09-29T16:57:33;15.10;71.80
67557;DHT22;54387;53.526;49.300;2022-09-29T17:00:05;15.10;71.90
67557;DHT22;54387;53.526;49.300;2022-09-29T17:02:33;15.10;71.90
67557;DHT22;54387;53.526;49.300;2022-09-29T17:04:59;15.10;71.90
67557;DHT22;54387;53.526;49.300;2022-09-29T17:07:29;15.10;71.90
67557;DHT22;54387;53.526;49.300;2022-09-29T17:09:58;15.10;71.90
67557;DHT22;54387;53.526;49.300;2022-09-29T17:12:27;15.00;71.90
67557;DHT22;54387;53.526;49.300;2022-09-29T17:14:54;15.00;72.10
67557;DHT22;54387;53.526;49.300;2022-09-29T17:17:23;15.00;72.10
67557;DHT22;54387;53.526;49.300;2022-09-29T17:19:51;14.90;71.90
67557;DHT22;54387;53.526;49.300;2022-09-29T17:22:26;14.90;71.90
67557;DHT22;54387;53.526;49.300;2022-09-29T17:24:53;14.90;72.00
67557;DHT22;54387;53.526;49.300;2022-09-29T17:27:20;14.90;72.10
67557;DHT22;54387;53.526;49.300;2022-09-29T17:30:05;14.90;72.00
67557;DHT22;54387;53.526;49.300;2022-09-29T17:32:32;14.90;72.00
67557;DHT22;54387;53.526;49.300;2022-09-29T17:35:01;14.80;71.90
67557;DHT22;54387;53.526;49.300;2022-09-29T17:37:27;14.80;71.90
67557;DHT22;54387;53.526;49.300;2022-09-29T17:39:54;14.80;72.00
67557;DHT22;54387;53.526;49.300;2022-09-29T17:42:22;14.70;72.60
67557;DHT22;54387;53.526;49.300;2022-09-29T17:44:50;14.80;72.10
67557;DHT22;54387;53.526;49.300;2022-09-29T17:47:17;14.80;72.00
67557;DHT22;54387;53.526;49.300;2022-09-29T17:49:45;14.70;71.90
67557;DHT22;54387;53.526;49.300;2022-09-29T17:52:16;14.70;71.90
67557;DHT22;54387;53.526;49.300;2022-09-29T17:54:44;14.70;71.90
67557;DHT22;54387;53.526;49.300;2022-09-29T17:57:29;14.60;72.10
67557;DHT22;54387;53.526;49.300;2022-09-29T17:59:57;14.70;72.10
67557;DHT22;54387;53.526;49.300;2022-09-29T18:02:25;14.60;72.10
67557;DHT22;54387;53.526;49.300;2022-09-29T18:04:52;14.60;72.10
67557;DHT22;54387;53.526;49.300;2022-09-29T18:07:19;14.60;72.30
67557;DHT22;54387;53.526;49.300;2022-09-29T18:09:45;14.60;72.30
67557;DHT22;54387;53.526;49.300;2022-09-29T18:12:12;14.50;72.30
67557;DHT22;54387;53.526;49.300;2022-09-29T18:14:38;14.60;72.40
67557;DHT22;54387;53.526;49.300;2022-09-29T18:17:05;14.50;72.40
67557;DHT22;54387;53.526;49.300;2022-09-29T18:19:32;14.60;72.40
67557;DHT22;54387;53.526;49.300;2022-09-29T18:22:01;14.60;72.30
67557;DHT22;54387;53.526;49.300;2022-09-29T18:24:32;14.60;72.20
67557;DHT22;54387;53.526;49.300;2022-09-29T18:26:59;14.60;72.20
67557;DHT22;54387;53.526;49.300;2022-09-29T18:29:26;14.60;72.20
67557;DHT22;54387;53.526;49.300;2022-09-29T18:31:52;14.50;72.30
67557;DHT22;54387;53.526;49.300;2022-09-29T18:34:19;14.50;72.30
67557;DHT22;54387;53.526;49.300;2022-09-29T18:36:47;14.50;72.30
67557;DHT22;54387;53.526;49.300;2022-09-29T18:39:13;14.50;72.30
67557;DHT22;54387;53.526;49.300;2022-09-29T18:41:40;14.60;72.40
67557;DHT22;54387;53.526;49.300;2022-09-29T18:44:24;14.60;72.40
67557;DHT22;54387;53.526;49.300;2022-09-29T18:46:55;14.60;72.40
67557;DHT22;54387;53.526;49.300;2022-09-29T18:49:21;14.60;72.40
67557;DHT22;54387;53.526;49.300;2022-09-29T18:51:48;14.60;72.40
67557;DHT22;54387;53.526;49.300;2022-09-29T18:54:17;14.60;72.30
67557;DHT22;54387;53.526;49.300;2022-09-29T18:56:44;14.60;72.30
67557;DHT22;54387;53.526;49.300;2022-09-29T18:59:11;14.60;72.30
67557;DHT22;54387;53.526;49.300;2022-09-29T19:01:39;14.60;72.30
67557;DHT22;54387;53.526;49.300;2022-09-29T19:04:05;14.60;72.30
67557;DHT22;54387;53.526;49.300;2022-09-29T19:06:32;14.50;72.30
67557;DHT22;54387;53.526;49.300;2022-09-29T19:08:58;14.50;72.40
67557;DHT22;54387;53.526;49.300;2022-09-29T19:11:26;14.50;72.30
67557;DHT22;54387;53.526;49.300;2022-09-29T19:13:53;14.50;72.30
67557;DHT22;54387;53.526;49.300;2022-09-29T19:16:22;14.40;72.20